sensor_id;sensor_type;location;lat;lon;timestamp;P1;durP1;ratioP1;P2;durP2;ratioP2
59756;SDS011;45631;51.962;5.974;2023-03-13T00:02:05;21.80;;;4.90;;
59756;SDS011;45631;51.962;5.974;2023-03-13T00:04:33;22.67;;;4.40;;
59756;SDS011;45631;51.962;5.974;2023-03-13T00:07:01;24.67;;;3.75;;
59756;SDS011;45631;51.962;5.974;2023-03-13T00:09:30;18.42;;;3.85;;
59756;SDS011;45631;51.962;5.974;2023-03-13T00:11:59;20.35;;;4.35;;
59756;SDS011;45631;51.962;5.974;2023-03-13T00:14:27;19.92;;;4.32;;
59756;SDS011;45631;51.962;5.974;2023-03-13T00:16:55;21.38;;;4.15;;
59756;SDS011;45631;51.962;5.974;2023-03-13T00:19:24;19.10;;;4.45;;
59756;SDS011;45631;51.962;5.974;2023-03-13T00:21:52;18.27;;;3.92;;
59756;SDS011;45631;51.962;5.974;2023-03-13T00:24:20;20.08;;;3.70;;
59756;SDS011;45631;51.962;5.974;2023-03-13T00:26:48;20.85;;;4.47;;
59756;SDS011;45631;51.962;5.974;2023-03-13T00:29:18;21.75;;;4.22;;
59756;SDS011;45631;51.962;5.974;2023-03-13T00:31:46;17.33;;;4.35;;
59756;SDS011;45631;51.962;5.974;2023-03-13T00:34:14;22.73;;;4.60;;
59756;SDS011;45631;51.962;5.974;2023-03-13T00:36:42;22.38;;;4.25;;
59756;SDS011;45631;51.962;5.974;2023-03-13T00:39:13;20.58;;;3.72;;
59756;SDS011;45631;51.962;5.974;2023-03-13T00:41:41;19.95;;;4.05;;
59756;SDS011;45631;51.962;5.974;2023-03-13T00:44:09;19.27;;;3.97;;
59756;SDS011;45631;51.962;5.974;2023-03-13T00:46:38;20.80;;;3.92;;
59756;SDS011;45631;51.962;5.974;2023-03-13T00:49:06;18.88;;;4.13;;
59756;SDS011;45631;51.962;5.974;2023-03-13T00:51:34;22.45;;;4.72;;
59756;SDS011;45631;51.962;5.974;2023-03-13T00:54:03;20.77;;;4.55;;
59756;SDS011;45631;51.962;5.974;2023-03-13T00:56:31;19.90;;;4.65;;
59756;SDS011;45631;51.962;5.974;2023-03-13T00:58:59;20.80;;;4.55;;
59756;SDS011;45631;51.962;5.974;2023-03-13T01:01:28;24.05;;;4.18;;
59756;SDS011;45631;51.962;5.974;2023-03-13T01:04:00;16.00;;;4.22;;
59756;SDS011;45631;51.962;5.974;2023-03-13T01:06:30;21.38;;;4.15;;
59756;SDS011;45631;51.962;5.974;2023-03-13T01:09:00;26.92;;;4.32;;
59756;SDS011;45631;51.962;5.974;2023-03-13T01:11:30;24.90;;;4.93;;
59756;SDS011;45631;51.962;5.974;2023-03-13T01:14:00;26.73;;;4.47;;
59756;SDS011;45631;51.962;5.974;2023-03-13T01:16:31;20.70;;;4.90;;
59756;SDS011;45631;51.962;5.974;2023-03-13T01:19:03;16.30;;;4.22;;
59756;SDS011;45631;51.962;5.974;2023-03-13T01:21:33;17.03;;;4.37;;
59756;SDS011;45631;51.962;5.974;2023-03-13T01:24:02;20.38;;;4.60;;
59756;SDS011;45631;51.962;5.974;2023-03-13T01:26:30;20.13;;;3.83;;
59756;SDS011;45631;51.962;5.974;2023-03-13T01:28:58;20.67;;;4.60;;
59756;SDS011;45631;51.962;5.974;2023-03-13T01:31:28;16.63;;;4.07;;
59756;SDS011;45631;51.962;5.974;2023-03-13T01:33:58;23.05;;;4.47;;
59756;SDS011;45631;51.962;5.974;2023-03-13T01:36:29;21.35;;;5.03;;
59756;SDS011;45631;51.962;5.974;2023-03-13T01:38:58;18.23;;;4.57;;
59756;SDS011;45631;51.962;5.974;2023-03-13T01:41:28;19.63;;;5.03;;
59756;SDS011;45631;51.962;5.974;2023-03-13T01:43:57;18.75;;;5.00;;
59756;SDS011;45631;51.962;5.974;2023-03-13T01:46:26;21.10;;;4.85;;
59756;SDS011;45631;51.962;5.974;2023-03-13T01:48:56;15.40;;;4.45;;
59756;SDS011;45631;51.962;5.974;2023-03-13T01:51:31;18.50;;;4.18;;
59756;SDS011;45631;51.962;5.974;2023-03-13T01:54:03;16.58;;;3.67;;
59756;SDS011;45631;51.962;5.974;2023-03-13T01:56:36;18.70;;;4.07;;
59756;SDS011;45631;51.962;5.974;2023-03-13T01:59:07;17.63;;;4.30;;
59756;SDS011;45631;51.962;5.974;2023-03-13T02:01:41;18.80;;;4.80;;
59756;SDS011;45631;51.962;5.974;2023-03-13T02:04:12;17.80;;;3.65;;
59756;SDS011;45631;51.962;5.974;2023-03-13T02:06:44;16.73;;;3.95;;
59756;SDS011;45631;51.962;5.974;2023-03-13T02:09:17;11.15;;;4.03;;
59756;SDS011;45631;51.962;5.974;2023-03-13T02:11:50;14.82;;;3.92;;
59756;SDS011;45631;51.962;5.974;2023-03-13T02:14:22;15.77;;;3.97;;
59756;SDS011;45631;51.962;5.974;2023-03-13T02:16:54;12.55;;;3.65;;
59756;SDS011;45631;51.962;5.974;2023-03-13T02:19:24;14.55;;;4.00;;
59756;SDS011;45631;51.962;5.974;2023-03-13T02:22:00;15.90;;;4.60;;
59756;SDS011;45631;51.962;5.974;2023-03-13T02:24:37;14.15;;;3.70;;
59756;SDS011;45631;51.962;5.974;2023-03-13T02:27:12;17.02;;;4.50;;
59756;SDS011;45631;51.962;5.974;2023-03-13T02:29:40;13.70;;;4.30;;
59756;SDS011;45631;51.962;5.974;2023-03-13T02:32:08;14.70;;;4.72;;
59756;SDS011;45631;51.962;5.974;2023-03-13T02:34:37;19.08;;;4.60;;
59756;SDS011;45631;51.962;5.974;2023-03-13T02:37:06;14.98;;;5.20;;
59756;SDS011;45631;51.962;5.974;2023-03-13T02:39:39;13.13;;;4.78;;
59756;SDS011;45631;51.962;5.974;2023-03-13T02:42:13;15.23;;;5.07;;
59756;SDS011;45631;51.962;5.974;2023-03-13T02:44:44;12.10;;;5.35;;
59756;SDS011;45631;51.962;5.974;2023-03-13T02:47:16;15.65;;;5.72;;
59756;SDS011;45631;51.962;5.974;2023-03-13T02:49:45;13.80;;;6.28;;
59756;SDS011;45631;51.962;5.974;2023-03-13T02:52:13;17.10;;;6.07;;
59756;SDS011;45631;51.962;5.974;2023-03-13T02:54:46;18.27;;;5.20;;
59756;SDS011;45631;51.962;5.974;2023-03-13T02:57:18;16.80;;;6.07;;
59756;SDS011;45631;51.962;5.974;2023-03-13T02:59:46;13.23;;;5.75;;
59756;SDS011;45631;51.962;5.974;2023-03-13T03:02:14;17.92;;;6.07;;
59756;SDS011;45631;51.962;5.974;2023-03-13T03:04:42;12.85;;;5.70;;
59756;SDS011;45631;51.962;5.974;2023-03-13T03:07:10;18.77;;;6.65;;
59756;SDS011;45631;51.962;5.974;2023-03-13T03:09:39;14.95;;;6.38;;
59756;SDS011;45631;51.962;5.974;2023-03-13T03:12:07;21.65;;;6.82;;
59756;SDS011;45631;51.962;5.974;2023-03-13T03:14:40;14.73;;;6.53;;
59756;SDS011;45631;51.962;5.974;2023-03-13T03:17:08;15.52;;;7.00;;
59756;SDS011;45631;51.962;5.974;2023-03-13T03:19:36;19.67;;;7.85;;
59756;SDS011;45631;51.962;5.974;2023-03-13T03:22:04;13.98;;;7.25;;
59756;SDS011;45631;51.962;5.974;2023-03-13T03:24:32;17.00;;;7.38;;
59756;SDS011;45631;51.962;5.974;2023-03-13T03:27:00;15.00;;;7.57;;
59756;SDS011;45631;51.962;5.974;2023-03-13T03:29:28;17.10;;;7.22;;
59756;SDS011;45631;51.962;5.974;2023-03-13T03:31:58;18.13;;;7.78;;
59756;SDS011;45631;51.962;5.974;2023-03-13T03:34:26;15.80;;;7.65;;
59756;SDS011;45631;51.962;5.974;2023-03-13T03:36:54;16.38;;;8.05;;
59756;SDS011;45631;51.962;5.974;2023-03-13T03:39:22;15.50;;;8.07;;
59756;SDS011;45631;51.962;5.974;2023-03-13T03:41:51;16.20;;;7.63;;
59756;SDS011;45631;51.962;5.974;2023-03-13T03:44:22;17.27;;;7.93;;
59756;SDS011;45631;51.962;5.974;2023-03-13T03:46:50;17.02;;;7.97;;
59756;SDS011;45631;51.962;5.974;2023-03-13T03:49:20;17.95;;;7.40;;
59756;SDS011;45631;51.962;5.974;2023-03-13T03:51:48;14.82;;;7.47;;
59756;SDS011;45631;51.962;5.974;2023-03-13T03:54:19;14.00;;;7.05;;
59756;SDS011;45631;51.962;5.974;2023-03-13T03:56:47;13.50;;;7.30;;
59756;SDS011;45631;51.962;5.974;2023-03-13T03:59:15;14.38;;;7.45;;
59756;SDS011;45631;51.962;5.974;2023-03-13T04:01:43;13.90;;;7.38;;
59756;SDS011;45631;51.962;5.974;2023-03-13T04:04:11;12.75;;;6.50;;
59756;SDS011;45631;51.962;5.974;2023-03-13T04:06:43;16.23;;;7.07;;
59756;SDS011;45631;51.962;5.974;2023-03-13T04:09:11;11.60;;;6.45;;
59756;SDS011;45631;51.962;5.974;2023-03-13T04:11:40;15.30;;;7.25;;
59756;SDS011;45631;51.962;5.974;2023-03-13T04:14:08;23.95;;;6.60;;
59756;SDS011;45631;51.962;5.974;2023-03-13T04:16:36;11.90;;;6.55;;
59756;SDS011;45631;51.962;5.974;2023-03-13T04:19:04;14.52;;;6.63;;
59756;SDS011;45631;51.962;5.974;2023-03-13T04:21:32;13.02;;;6.65;;
59756;SDS011;45631;51.962;5.974;2023-03-13T04:24:02;13.05;;;6.43;;
59756;SDS011;45631;51.962;5.974;2023-03-13T04:26:30;13.18;;;6.82;;
59756;SDS011;45631;51.962;5.974;2023-03-13T04:28:58;12.57;;;6.47;;
59756;SDS011;45631;51.962;5.974;2023-03-13T04:31:26;15.18;;;6.22;;
59756;SDS011;45631;51.962;5.974;2023-03-13T04:33:54;13.15;;;7.13;;
59756;SDS011;45631;51.962;5.974;2023-03-13T04:36:23;12.90;;;6.88;;
59756;SDS011;45631;51.962;5.974;2023-03-13T04:38:51;11.40;;;6.40;;
59756;SDS011;45631;51.962;5.974;2023-03-13T04:41:22;12.35;;;7.22;;
59756;SDS011;45631;51.962;5.974;2023-03-13T04:43:51;13.52;;;7.18;;
59756;SDS011;45631;51.962;5.974;2023-03-13T04:46:19;13.40;;;7.53;;
59756;SDS011;45631;51.962;5.974;2023-03-13T04:48:47;12.48;;;6.97;;
59756;SDS011;45631;51.962;5.974;2023-03-13T04:51:15;13.43;;;7.03;;
59756;SDS011;45631;51.962;5.974;2023-03-13T04:53:43;16.02;;;7.63;;
59756;SDS011;45631;51.962;5.974;2023-03-13T04:56:11;14.32;;;7.93;;
59756;SDS011;45631;51.962;5.974;2023-03-13T04:59:08;12.18;;;6.85;;
59756;SDS011;45631;51.962;5.974;2023-03-13T05:01:37;10.57;;;6.88;;
59756;SDS011;45631;51.962;5.974;2023-03-13T05:04:05;14.20;;;6.88;;
59756;SDS011;45631;51.962;5.974;2023-03-13T05:06:33;14.73;;;7.20;;
59756;SDS011;45631;51.962;5.974;2023-03-13T05:09:02;11.55;;;7.32;;
59756;SDS011;45631;51.962;5.974;2023-03-13T05:11:30;14.20;;;7.60;;
59756;SDS011;45631;51.962;5.974;2023-03-13T05:14:01;13.20;;;7.00;;
59756;SDS011;45631;51.962;5.974;2023-03-13T05:16:31;13.55;;;7.10;;
59756;SDS011;45631;51.962;5.974;2023-03-13T05:18:59;13.95;;;7.40;;
59756;SDS011;45631;51.962;5.974;2023-03-13T05:21:27;12.23;;;7.18;;
59756;SDS011;45631;51.962;5.974;2023-03-13T05:23:55;16.20;;;7.20;;
59756;SDS011;45631;51.962;5.974;2023-03-13T05:26:24;12.30;;;6.75;;
59756;SDS011;45631;51.962;5.974;2023-03-13T05:28:52;12.02;;;6.85;;
59756;SDS011;45631;51.962;5.974;2023-03-13T05:31:23;12.02;;;6.72;;
59756;SDS011;45631;51.962;5.974;2023-03-13T05:33:52;15.10;;;7.35;;
59756;SDS011;45631;51.962;5.974;2023-03-13T05:36:20;13.85;;;6.65;;
59756;SDS011;45631;51.962;5.974;2023-03-13T05:38:49;11.88;;;6.32;;
59756;SDS011;45631;51.962;5.974;2023-03-13T05:41:17;15.93;;;6.05;;
59756;SDS011;45631;51.962;5.974;2023-03-13T05:43:45;10.40;;;5.75;;
59756;SDS011;45631;51.962;5.974;2023-03-13T05:46:13;10.85;;;6.57;;
59756;SDS011;45631;51.962;5.974;2023-03-13T05:48:41;12.27;;;6.25;;
59756;SDS011;45631;51.962;5.974;2023-03-13T05:51:15;12.20;;;5.68;;
59756;SDS011;45631;51.962;5.974;2023-03-13T05:53:43;13.93;;;6.15;;
59756;SDS011;45631;51.962;5.974;2023-03-13T05:56:11;10.82;;;5.55;;
59756;SDS011;45631;51.962;5.974;2023-03-13T05:58:39;11.55;;;6.00;;
59756;SDS011;45631;51.962;5.974;2023-03-13T06:01:08;10.98;;;5.43;;
59756;SDS011;45631;51.962;5.974;2023-03-13T06:03:37;11.77;;;6.05;;
59756;SDS011;45631;51.962;5.974;2023-03-13T06:06:06;9.70;;;5.00;;
59756;SDS011;45631;51.962;5.974;2023-03-13T06:08:35;9.85;;;5.25;;
59756;SDS011;45631;51.962;5.974;2023-03-13T06:11:03;11.80;;;5.65;;
59756;SDS011;45631;51.962;5.974;2023-03-13T06:13:31;9.57;;;4.78;;
59756;SDS011;45631;51.962;5.974;2023-03-13T06:16:00;11.70;;;4.95;;
59756;SDS011;45631;51.962;5.974;2023-03-13T06:18:28;10.27;;;5.00;;
59756;SDS011;45631;51.962;5.974;2023-03-13T06:20:58;10.50;;;4.75;;
59756;SDS011;45631;51.962;5.974;2023-03-13T06:23:27;9.52;;;4.82;;
59756;SDS011;45631;51.962;5.974;2023-03-13T06:25:57;11.02;;;5.45;;
59756;SDS011;45631;51.962;5.974;2023-03-13T06:28:27;10.88;;;4.93;;
59756;SDS011;45631;51.962;5.974;2023-03-13T06:30:59;11.48;;;5.00;;
59756;SDS011;45631;51.962;5.974;2023-03-13T06:35:56;10.98;;;4.68;;
59756;SDS011;45631;51.962;5.974;2023-03-13T06:38:26;12.18;;;4.97;;
59756;SDS011;45631;51.962;5.974;2023-03-13T06:40:56;8.32;;;4.53;;
59756;SDS011;45631;51.962;5.974;2023-03-13T06:43:25;9.20;;;3.72;;
59756;SDS011;45631;51.962;5.974;2023-03-13T06:45:53;9.95;;;4.47;;
59756;SDS011;45631;51.962;5.974;2023-03-13T06:48:21;10.70;;;4.10;;
59756;SDS011;45631;51.962;5.974;2023-03-13T06:50:49;8.90;;;3.40;;
59756;SDS011;45631;51.962;5.974;2023-03-13T06:53:18;10.05;;;3.65;;
59756;SDS011;45631;51.962;5.974;2023-03-13T06:55:47;13.18;;;3.97;;
59756;SDS011;45631;51.962;5.974;2023-03-13T06:58:17;9.35;;;3.63;;
59756;SDS011;45631;51.962;5.974;2023-03-13T07:00:58;9.05;;;3.28;;
59756;SDS011;45631;51.962;5.974;2023-03-13T07:03:26;9.48;;;4.25;;
59756;SDS011;45631;51.962;5.974;2023-03-13T07:05:54;11.75;;;3.85;;
59756;SDS011;45631;51.962;5.974;2023-03-13T07:08:23;10.80;;;3.63;;
59756;SDS011;45631;51.962;5.974;2023-03-13T07:10:52;9.98;;;3.83;;
59756;SDS011;45631;51.962;5.974;2023-03-13T07:13:25;8.80;;;3.17;;
59756;SDS011;45631;51.962;5.974;2023-03-13T07:15:54;9.30;;;3.50;;
59756;SDS011;45631;51.962;5.974;2023-03-13T07:18:22;8.85;;;3.35;;
59756;SDS011;45631;51.962;5.974;2023-03-13T07:20:51;13.77;;;3.75;;
59756;SDS011;45631;51.962;5.974;2023-03-13T07:23:20;9.48;;;2.88;;
59756;SDS011;45631;51.962;5.974;2023-03-13T07:25:52;10.23;;;3.33;;
59756;SDS011;45631;51.962;5.974;2023-03-13T07:28:21;9.82;;;3.33;;
59756;SDS011;45631;51.962;5.974;2023-03-13T07:30:53;14.95;;;3.40;;
59756;SDS011;45631;51.962;5.974;2023-03-13T07:33:21;8.50;;;3.08;;
59756;SDS011;45631;51.962;5.974;2023-03-13T07:35:50;9.55;;;2.92;;
59756;SDS011;45631;51.962;5.974;2023-03-13T07:38:19;8.90;;;2.88;;
59756;SDS011;45631;51.962;5.974;2023-03-13T07:40:48;9.35;;;3.28;;
59756;SDS011;45631;51.962;5.974;2023-03-13T07:43:16;9.57;;;3.45;;
59756;SDS011;45631;51.962;5.974;2023-03-13T07:45:49;9.52;;;2.75;;
59756;SDS011;45631;51.962;5.974;2023-03-13T07:48:24;11.13;;;2.90;;
59756;SDS011;45631;51.962;5.974;2023-03-13T07:50:55;8.80;;;2.70;;
59756;SDS011;45631;51.962;5.974;2023-03-13T07:53:24;8.75;;;2.90;;
59756;SDS011;45631;51.962;5.974;2023-03-13T07:55:53;6.70;;;2.47;;
59756;SDS011;45631;51.962;5.974;2023-03-13T07:58:24;9.73;;;3.08;;
59756;SDS011;45631;51.962;5.974;2023-03-13T08:00:54;10.18;;;3.00;;
59756;SDS011;45631;51.962;5.974;2023-03-13T08:03:23;8.82;;;3.00;;
59756;SDS011;45631;51.962;5.974;2023-03-13T08:05:58;9.57;;;3.20;;
59756;SDS011;45631;51.962;5.974;2023-03-13T08:08:30;8.52;;;3.05;;
59756;SDS011;45631;51.962;5.974;2023-03-13T08:10:59;10.43;;;2.70;;
59756;SDS011;45631;51.962;5.974;2023-03-13T08:13:27;8.68;;;2.80;;
59756;SDS011;45631;51.962;5.974;2023-03-13T08:16:04;9.80;;;3.10;;
59756;SDS011;45631;51.962;5.974;2023-03-13T08:18:34;9.70;;;2.90;;
59756;SDS011;45631;51.962;5.974;2023-03-13T08:21:05;9.32;;;3.25;;
59756;SDS011;45631;51.962;5.974;2023-03-13T08:23:35;7.70;;;3.20;;
59756;SDS011;45631;51.962;5.974;2023-03-13T08:26:04;8.07;;;2.53;;
59756;SDS011;45631;51.962;5.974;2023-03-13T08:28:33;6.55;;;2.75;;
59756;SDS011;45631;51.962;5.974;2023-03-13T08:31:08;11.38;;;2.95;;
59756;SDS011;45631;51.962;5.974;2023-03-13T08:33:37;10.07;;;2.70;;
59756;SDS011;45631;51.962;5.974;2023-03-13T08:36:09;8.88;;;2.80;;
59756;SDS011;45631;51.962;5.974;2023-03-13T08:38:38;10.02;;;2.70;;
59756;SDS011;45631;51.962;5.974;2023-03-13T08:41:11;8.20;;;2.85;;
59756;SDS011;45631;51.962;5.974;2023-03-13T08:43:44;8.27;;;2.72;;
59756;SDS011;45631;51.962;5.974;2023-03-13T08:46:14;6.65;;;2.53;;
59756;SDS011;45631;51.962;5.974;2023-03-13T08:48:47;11.80;;;2.83;;
59756;SDS011;45631;51.962;5.974;2023-03-13T08:51:17;8.52;;;2.80;;
59756;SDS011;45631;51.962;5.974;2023-03-13T08:53:47;8.82;;;3.13;;
59756;SDS011;45631;51.962;5.974;2023-03-13T08:56:15;9.57;;;2.63;;
59756;SDS011;45631;51.962;5.974;2023-03-13T08:58:47;11.85;;;2.90;;
59756;SDS011;45631;51.962;5.974;2023-03-13T09:01:18;6.95;;;2.30;;
59756;SDS011;45631;51.962;5.974;2023-03-13T09:03:47;10.52;;;2.70;;
59756;SDS011;45631;51.962;5.974;2023-03-13T09:06:16;10.32;;;2.78;;
59756;SDS011;45631;51.962;5.974;2023-03-13T09:08:47;8.02;;;2.60;;
59756;SDS011;45631;51.962;5.974;2023-03-13T09:11:16;9.25;;;2.88;;
59756;SDS011;45631;51.962;5.974;2023-03-13T09:13:46;6.57;;;2.38;;
59756;SDS011;45631;51.962;5.974;2023-03-13T09:16:22;6.95;;;2.58;;
59756;SDS011;45631;51.962;5.974;2023-03-13T09:18:51;6.57;;;2.33;;
59756;SDS011;45631;51.962;5.974;2023-03-13T09:21:20;8.85;;;2.50;;
59756;SDS011;45631;51.962;5.974;2023-03-13T09:23:50;6.30;;;2.30;;
59756;SDS011;45631;51.962;5.974;2023-03-13T09:26:19;4.93;;;2.13;;
59756;SDS011;45631;51.962;5.974;2023-03-13T09:28:48;9.35;;;2.78;;
59756;SDS011;45631;51.962;5.974;2023-03-13T09:31:17;7.90;;;2.20;;
59756;SDS011;45631;51.962;5.974;2023-03-13T09:33:51;6.50;;;1.90;;
59756;SDS011;45631;51.962;5.974;2023-03-13T09:36:19;6.20;;;1.85;;
59756;SDS011;45631;51.962;5.974;2023-03-13T09:38:49;6.60;;;2.38;;
59756;SDS011;45631;51.962;5.974;2023-03-13T09:41:23;7.10;;;1.80;;
59756;SDS011;45631;51.962;5.974;2023-03-13T09:43:55;8.35;;;1.80;;
59756;SDS011;45631;51.962;5.974;2023-03-13T09:46:30;7.53;;;2.05;;
59756;SDS011;45631;51.962;5.974;2023-03-13T09:49:07;4.40;;;1.80;;
59756;SDS011;45631;51.962;5.974;2023-03-13T09:51:45;10.13;;;2.47;;
59756;SDS011;45631;51.962;5.974;2023-03-13T09:54:27;8.68;;;2.42;;
59756;SDS011;45631;51.962;5.974;2023-03-13T09:57:04;7.55;;;2.20;;
59756;SDS011;45631;51.962;5.974;2023-03-13T09:59:42;5.82;;;2.10;;
59756;SDS011;45631;51.962;5.974;2023-03-13T10:02:18;10.23;;;2.20;;
59756;SDS011;45631;51.962;5.974;2023-03-13T10:04:57;5.60;;;1.95;;
59756;SDS011;45631;51.962;5.974;2023-03-13T10:07:31;6.80;;;1.88;;
59756;SDS011;45631;51.962;5.974;2023-03-13T10:09:59;5.70;;;1.73;;
59756;SDS011;45631;51.962;5.974;2023-03-13T10:12:29;6.38;;;2.28;;
59756;SDS011;45631;51.962;5.974;2023-03-13T10:15:11;6.45;;;2.35;;
59756;SDS011;45631;51.962;5.974;2023-03-13T10:17:49;7.80;;;1.52;;
59756;SDS011;45631;51.962;5.974;2023-03-13T10:20:23;8.52;;;1.80;;
59756;SDS011;45631;51.962;5.974;2023-03-13T10:22:55;7.70;;;1.90;;
59756;SDS011;45631;51.962;5.974;2023-03-13T10:25:27;7.15;;;2.13;;
59756;SDS011;45631;51.962;5.974;2023-03-13T10:27:59;6.05;;;1.70;;
59756;SDS011;45631;51.962;5.974;2023-03-13T10:30:28;5.82;;;1.70;;
59756;SDS011;45631;51.962;5.974;2023-03-13T10:32:58;5.25;;;1.80;;
59756;SDS011;45631;51.962;5.974;2023-03-13T10:35:32;5.30;;;1.70;;
59756;SDS011;45631;51.962;5.974;2023-03-13T10:38:03;6.95;;;1.90;;
59756;SDS011;45631;51.962;5.974;2023-03-13T10:40:36;6.80;;;1.73;;
59756;SDS011;45631;51.962;5.974;2023-03-13T10:43:06;6.38;;;2.05;;
59756;SDS011;45631;51.962;5.974;2023-03-13T10:45:39;8.45;;;1.90;;
59756;SDS011;45631;51.962;5.974;2023-03-13T10:48:10;5.78;;;2.25;;
59756;SDS011;45631;51.962;5.974;2023-03-13T10:50:42;6.18;;;1.80;;
59756;SDS011;45631;51.962;5.974;2023-03-13T10:53:19;5.53;;;1.98;;
59756;SDS011;45631;51.962;5.974;2023-03-13T10:55:51;4.93;;;1.92;;
59756;SDS011;45631;51.962;5.974;2023-03-13T10:58:22;5.05;;;1.77;;
59756;SDS011;45631;51.962;5.974;2023-03-13T11:00:55;6.40;;;1.83;;
59756;SDS011;45631;51.962;5.974;2023-03-13T11:03:44;5.50;;;1.83;;
59756;SDS011;45631;51.962;5.974;2023-03-13T11:06:28;5.13;;;1.63;;
59756;SDS011;45631;51.962;5.974;2023-03-13T11:09:04;5.78;;;1.67;;
59756;SDS011;45631;51.962;5.974;2023-03-13T11:11:46;3.80;;;1.50;;
59756;SDS011;45631;51.962;5.974;2023-03-13T11:14:17;7.43;;;1.70;;
59756;SDS011;45631;51.962;5.974;2023-03-13T11:16:46;6.47;;;1.60;;
59756;SDS011;45631;51.962;5.974;2023-03-13T11:19:27;5.22;;;1.50;;
59756;SDS011;45631;51.962;5.974;2023-03-13T11:24:59;5.88;;;1.90;;
59756;SDS011;45631;51.962;5.974;2023-03-13T11:27:31;6.25;;;1.70;;
59756;SDS011;45631;51.962;5.974;2023-03-13T11:30:19;4.20;;;1.30;;
59756;SDS011;45631;51.962;5.974;2023-03-13T11:33:08;3.33;;;1.40;;
59756;SDS011;45631;51.962;5.974;2023-03-13T11:35:44;5.22;;;1.40;;
59756;SDS011;45631;51.962;5.974;2023-03-13T11:38:18;6.05;;;1.77;;
59756;SDS011;45631;51.962;5.974;2023-03-13T11:40:56;5.05;;;1.50;;
59756;SDS011;45631;51.962;5.974;2023-03-13T11:43:39;7.32;;;1.60;;
59756;SDS011;45631;51.962;5.974;2023-03-13T11:46:20;5.35;;;1.48;;
59756;SDS011;45631;51.962;5.974;2023-03-13T11:51:48;3.75;;;1.40;;
59756;SDS011;45631;51.962;5.974;2023-03-13T11:57:26;5.22;;;1.48;;
59756;SDS011;45631;51.962;5.974;2023-03-13T12:00:02;5.30;;;1.20;;
59756;SDS011;45631;51.962;5.974;2023-03-13T12:02:45;5.38;;;1.20;;
59756;SDS011;45631;51.962;5.974;2023-03-13T12:07:47;4.95;;;1.33;;
59756;SDS011;45631;51.962;5.974;2023-03-13T12:10:22;3.85;;;1.30;;
59756;SDS011;45631;51.962;5.974;2023-03-13T12:12:56;6.40;;;1.42;;
59756;SDS011;45631;51.962;5.974;2023-03-13T12:15:30;4.25;;;1.15;;
59756;SDS011;45631;51.962;5.974;2023-03-13T12:18:04;4.45;;;1.20;;
59756;SDS011;45631;51.962;5.974;2023-03-13T12:20:40;3.42;;;1.50;;
59756;SDS011;45631;51.962;5.974;2023-03-13T12:23:16;3.17;;;1.13;;
59756;SDS011;45631;51.962;5.974;2023-03-13T12:25:51;4.10;;;1.30;;
59756;SDS011;45631;51.962;5.974;2023-03-13T12:28:26;4.15;;;1.27;;
59756;SDS011;45631;51.962;5.974;2023-03-13T12:31:03;6.85;;;1.20;;
59756;SDS011;45631;51.962;5.974;2023-03-13T12:33:39;4.97;;;1.13;;
59756;SDS011;45631;51.962;5.974;2023-03-13T12:36:12;4.10;;;1.10;;
59756;SDS011;45631;51.962;5.974;2023-03-13T12:38:46;5.22;;;1.60;;
59756;SDS011;45631;51.962;5.974;2023-03-13T12:41:21;7.13;;;1.40;;
59756;SDS011;45631;51.962;5.974;2023-03-13T12:43:53;8.48;;;1.42;;
59756;SDS011;45631;51.962;5.974;2023-03-13T12:46:35;5.20;;;1.10;;
59756;SDS011;45631;51.962;5.974;2023-03-13T12:49:21;6.18;;;1.10;;
59756;SDS011;45631;51.962;5.974;2023-03-13T12:58:45;4.15;;;1.50;;
59756;SDS011;45631;51.962;5.974;2023-03-13T13:01:20;7.72;;;1.48;;
59756;SDS011;45631;51.962;5.974;2023-03-13T13:03:57;6.10;;;1.40;;
59756;SDS011;45631;51.962;5.974;2023-03-13T13:06:29;5.38;;;1.60;;
59756;SDS011;45631;51.962;5.974;2023-03-13T13:11:51;3.90;;;1.30;;
59756;SDS011;45631;51.962;5.974;2023-03-13T13:17:27;5.50;;;1.30;;
59756;SDS011;45631;51.962;5.974;2023-03-13T13:19:58;6.63;;;1.67;;
59756;SDS011;45631;51.962;5.974;2023-03-13T13:35:24;4.07;;;1.50;;
59756;SDS011;45631;51.962;5.974;2023-03-13T13:41:24;4.25;;;1.10;;
59756;SDS011;45631;51.962;5.974;2023-03-13T13:46:55;5.10;;;1.17;;
59756;SDS011;45631;51.962;5.974;2023-03-13T13:49:31;6.13;;;1.60;;
59756;SDS011;45631;51.962;5.974;2023-03-13T13:55:28;4.30;;;1.23;;
59756;SDS011;45631;51.962;5.974;2023-03-13T13:57:59;9.10;;;1.20;;
59756;SDS011;45631;51.962;5.974;2023-03-13T14:00:35;4.07;;;1.00;;
59756;SDS011;45631;51.962;5.974;2023-03-13T14:03:15;3.70;;;1.15;;
59756;SDS011;45631;51.962;5.974;2023-03-13T14:05:49;4.32;;;1.23;;
59756;SDS011;45631;51.962;5.974;2023-03-13T14:08:21;7.95;;;1.42;;
59756;SDS011;45631;51.962;5.974;2023-03-13T14:11:02;8.18;;;1.30;;
59756;SDS011;45631;51.962;5.974;2023-03-13T14:13:38;4.40;;;1.02;;
59756;SDS011;45631;51.962;5.974;2023-03-13T14:16:19;6.03;;;1.10;;
59756;SDS011;45631;51.962;5.974;2023-03-13T14:18:50;5.97;;;1.30;;
59756;SDS011;45631;51.962;5.974;2023-03-13T14:21:20;7.22;;;1.30;;
59756;SDS011;45631;51.962;5.974;2023-03-13T14:23:49;5.05;;;1.30;;
59756;SDS011;45631;51.962;5.974;2023-03-13T14:26:18;4.00;;;1.40;;
59756;SDS011;45631;51.962;5.974;2023-03-13T14:28:49;4.07;;;1.10;;
59756;SDS011;45631;51.962;5.974;2023-03-13T14:31:23;5.70;;;1.30;;
59756;SDS011;45631;51.962;5.974;2023-03-13T14:33:53;6.55;;;1.30;;
59756;SDS011;45631;51.962;5.974;2023-03-13T14:36:22;3.47;;;0.90;;
59756;SDS011;45631;51.962;5.974;2023-03-13T14:38:51;6.35;;;1.30;;
59756;SDS011;45631;51.962;5.974;2023-03-13T14:41:22;4.90;;;1.30;;
59756;SDS011;45631;51.962;5.974;2023-03-13T14:43:55;6.00;;;1.20;;
59756;SDS011;45631;51.962;5.974;2023-03-13T14:46:31;6.85;;;1.30;;
59756;SDS011;45631;51.962;5.974;2023-03-13T14:49:05;5.88;;;1.23;;
59756;SDS011;45631;51.962;5.974;2023-03-13T14:51:38;5.03;;;1.38;;
59756;SDS011;45631;51.962;5.974;2023-03-13T14:54:20;8.00;;;1.60;;
59756;SDS011;45631;51.962;5.974;2023-03-13T14:57:00;5.80;;;1.10;;
59756;SDS011;45631;51.962;5.974;2023-03-13T14:59:32;6.10;;;1.58;;
59756;SDS011;45631;51.962;5.974;2023-03-13T15:02:00;6.30;;;1.30;;
59756;SDS011;45631;51.962;5.974;2023-03-13T15:04:53;6.35;;;1.40;;
59756;SDS011;45631;51.962;5.974;2023-03-13T15:07:25;7.45;;;1.50;;
59756;SDS011;45631;51.962;5.974;2023-03-13T15:10:02;5.95;;;1.30;;
59756;SDS011;45631;51.962;5.974;2023-03-13T15:12:45;6.82;;;1.40;;
59756;SDS011;45631;51.962;5.974;2023-03-13T15:15:15;6.78;;;1.60;;
59756;SDS011;45631;51.962;5.974;2023-03-13T15:17:44;8.05;;;1.50;;
59756;SDS011;45631;51.962;5.974;2023-03-13T15:20:12;6.95;;;1.27;;
59756;SDS011;45631;51.962;5.974;2023-03-13T15:22:42;6.82;;;1.70;;
59756;SDS011;45631;51.962;5.974;2023-03-13T15:25:14;7.28;;;1.35;;
59756;SDS011;45631;51.962;5.974;2023-03-13T15:27:44;7.55;;;1.33;;
59756;SDS011;45631;51.962;5.974;2023-03-13T15:30:17;7.70;;;1.60;;
59756;SDS011;45631;51.962;5.974;2023-03-13T15:32:48;6.57;;;1.58;;
59756;SDS011;45631;51.962;5.974;2023-03-13T15:35:22;6.35;;;1.60;;
59756;SDS011;45631;51.962;5.974;2023-03-13T15:37:54;8.48;;;2.00;;
59756;SDS011;45631;51.962;5.974;2023-03-13T15:40:23;10.32;;;1.88;;
59756;SDS011;45631;51.962;5.974;2023-03-13T15:42:53;9.30;;;2.05;;
59756;SDS011;45631;51.962;5.974;2023-03-13T15:45:23;8.07;;;2.17;;
59756;SDS011;45631;51.962;5.974;2023-03-13T15:47:51;8.63;;;2.00;;
59756;SDS011;45631;51.962;5.974;2023-03-13T15:50:20;8.40;;;2.20;;
59756;SDS011;45631;51.962;5.974;2023-03-13T15:52:51;8.63;;;1.48;;
59756;SDS011;45631;51.962;5.974;2023-03-13T15:55:19;9.48;;;2.08;;